createdAt,value
2022-12-25T00:01:21.452Z,294.38
2022-12-25T00:03:48.910Z,284.48
2022-12-25T00:06:15.961Z,313.13
2022-12-25T00:08:43.362Z,280.63
2022-12-25T00:11:16.545Z,284.65
2022-12-25T00:13:44.317Z,300.58
2022-12-25T00:16:16.457Z,293.83
2022-12-25T00:18:43.365Z,271.77
2022-12-25T00:21:10.716Z,261.50
2022-12-25T00:23:37.628Z,251.87
2022-12-25T00:26:12.867Z,211.05
2022-12-25T00:28:40.354Z,228.80
2022-12-25T00:31:09.759Z,225.50
2022-12-25T00:33:38.407Z,242.40
2022-12-25T00:36:07.173Z,220.97
2022-12-25T00:38:35.432Z,212.67
2022-12-25T00:41:10.992Z,239.63
2022-12-25T00:43:38.704Z,282.00
2022-12-25T00:46:07.508Z,272.03
2022-12-25T00:48:37.958Z,282.77
2022-12-25T00:51:07.686Z,302.70
2022-12-25T00:53:35.375Z,310.80
2022-12-25T00:56:07.497Z,286.20
2022-12-25T00:58:35.711Z,248.98
2022-12-25T01:01:04.002Z,259.63
2022-12-25T01:03:32.188Z,238.50
2022-12-25T01:06:04.762Z,269.43
2022-12-25T01:08:36.093Z,251.07
2022-12-25T01:11:07.746Z,255.68
2022-12-25T01:13:38.182Z,243.65
2022-12-25T01:16:10.257Z,263.00
2022-12-25T01:18:38.353Z,247.00
2022-12-25T01:21:13.451Z,262.63
2022-12-25T01:23:40.559Z,167.07
2022-12-25T01:28:37.214Z,154.75
2022-12-25T01:31:05.207Z,198.57
2022-12-25T01:33:32.383Z,191.95
2022-12-25T01:35:59.657Z,229.82
2022-12-25T01:38:27.511Z,266.85
2022-12-25T01:40:55.342Z,268.73
2022-12-25T01:43:27.226Z,263.67
2022-12-25T01:45:54.436Z,250.43
2022-12-25T01:48:30.613Z,262.98
2022-12-25T01:51:06.592Z,270.60
2022-12-25T01:53:35.920Z,260.30
2022-12-25T01:56:07.239Z,260.17
2022-12-25T01:58:35.228Z,260.70
2022-12-25T02:01:05.765Z,248.65
2022-12-25T02:03:33.123Z,232.23
2022-12-25T02:06:01.372Z,245.32
2022-12-25T02:08:29.193Z,251.50
2022-12-25T02:10:56.074Z,257.67
2022-12-25T02:13:23.499Z,270.37
2022-12-25T02:16:06.782Z,259.48
2022-12-25T02:18:37.083Z,222.10
2022-12-25T02:21:16.031Z,223.07
2022-12-25T02:24:04.854Z,206.00
2022-12-25T02:26:51.927Z,217.02
2022-12-25T02:29:29.841Z,196.77
2022-12-25T02:32:13.997Z,232.55
2022-12-25T02:35:07.395Z,212.90
2022-12-25T02:37:50.716Z,174.63
2022-12-25T02:40:41.084Z,181.27
2022-12-25T02:43:47.410Z,145.90
2022-12-25T02:46:36.734Z,150.00
2022-12-25T02:49:25.947Z,168.27
2022-12-25T02:52:17.930Z,139.20
2022-12-25T02:55:11.471Z,136.70
2022-12-25T02:58:02.904Z,137.77
2022-12-25T03:00:52.719Z,134.98
2022-12-25T03:03:41.015Z,123.55
2022-12-25T03:06:27.535Z,116.20
2022-12-25T03:09:17.921Z,126.40
2022-12-25T03:11:46.255Z,128.82
2022-12-25T03:14:31.542Z,129.23
2022-12-25T03:16:59.727Z,122.30
2022-12-25T03:19:48.525Z,120.32
2022-12-25T03:25:37.865Z,142.20
2022-12-25T03:28:06.359Z,145.97
2022-12-25T03:31:10.190Z,138.80
2022-12-25T03:34:14.523Z,137.07
2022-12-25T03:37:32.194Z,144.87
2022-12-25T03:40:31.416Z,144.40
2022-12-25T03:43:46.131Z,149.67
2022-12-25T03:46:34.992Z,138.80
2022-12-25T03:49:32.872Z,116.43
2022-12-25T03:52:21.800Z,129.55
2022-12-25T03:55:10.537Z,103.87
2022-12-25T03:57:55.872Z,96.17
2022-12-25T04:00:41.327Z,106.37
2022-12-25T04:03:26.555Z,111.25
2022-12-25T04:06:12.040Z,131.80
2022-12-25T04:08:57.316Z,136.27
2022-12-25T04:11:42.943Z,137.33
2022-12-25T04:14:28.443Z,133.93
2022-12-25T04:17:13.784Z,143.70
2022-12-25T04:19:59.201Z,146.80
2022-12-25T04:22:44.660Z,154.33
2022-12-25T04:25:29.947Z,141.93
2022-12-25T04:28:20.753Z,157.20
2022-12-25T04:31:06.370Z,152.77
2022-12-25T04:33:52.096Z,160.77
2022-12-25T04:36:19.660Z,128.63
2022-12-25T04:38:46.470Z,120.63
2022-12-25T04:41:13.963Z,114.90
2022-12-25T04:43:40.879Z,107.63
2022-12-25T04:46:07.768Z,89.53
2022-12-25T04:48:37.058Z,129.47
2022-12-25T04:51:12.219Z,120.27
2022-12-25T04:53:39.091Z,121.10
2022-12-25T04:56:06.440Z,114.47
2022-12-25T04:58:33.329Z,125.53
2022-12-25T05:01:01.469Z,110.53
2022-12-25T05:03:29.092Z,118.57
2022-12-25T05:05:56.369Z,134.10
2022-12-25T05:08:23.413Z,136.47
2022-12-25T05:10:50.263Z,147.20
2022-12-25T05:13:17.346Z,141.40
2022-12-25T05:15:44.459Z,149.57
2022-12-25T05:18:11.390Z,166.37
2022-12-25T05:20:40.445Z,151.33
2022-12-25T05:23:09.189Z,160.33
2022-12-25T05:25:39.819Z,146.43
2022-12-25T05:28:07.538Z,154.23
2022-12-25T05:30:35.371Z,142.50
2022-12-25T05:33:03.129Z,117.47
2022-12-25T05:35:30.037Z,105.70
2022-12-25T05:37:57.162Z,115.17
2022-12-25T05:40:24.231Z,118.77
2022-12-25T05:42:51.096Z,115.73
2022-12-25T05:45:18.006Z,119.63
2022-12-25T05:47:44.857Z,122.33
2022-12-25T05:50:11.843Z,134.73
2022-12-25T05:52:38.684Z,128.43
2022-12-25T05:55:06.022Z,113.07
2022-12-25T05:57:33.023Z,140.73
2022-12-25T05:59:59.921Z,134.80
2022-12-25T06:02:26.956Z,142.13
2022-12-25T06:04:53.998Z,142.10
2022-12-25T06:07:20.910Z,134.17
2022-12-25T06:09:47.922Z,138.57
2022-12-25T06:12:14.796Z,130.47
2022-12-25T06:14:41.645Z,135.40
2022-12-25T06:17:08.565Z,137.57
2022-12-25T06:19:35.393Z,130.63
2022-12-25T06:22:02.233Z,123.47
2022-12-25T06:24:29.276Z,121.17
2022-12-25T06:26:56.234Z,138.77
2022-12-25T06:29:23.185Z,116.50
2022-12-25T06:31:50.137Z,98.30
2022-12-25T06:34:17.101Z,104.03
2022-12-25T06:36:44.069Z,103.73
2022-12-25T06:39:11.051Z,94.43
2022-12-25T06:41:38.188Z,103.03
2022-12-25T06:44:05.287Z,87.17
2022-12-25T06:46:32.390Z,96.90
2022-12-25T06:49:00.189Z,104.20
2022-12-25T06:51:31.345Z,105.27
2022-12-25T06:53:59.916Z,106.53
2022-12-25T06:56:28.241Z,107.47
2022-12-25T06:58:57.796Z,114.23
2022-12-25T07:01:28.976Z,114.77
2022-12-25T07:04:02.658Z,117.23
2022-12-25T07:06:30.060Z,120.37
2022-12-25T07:08:56.952Z,111.60
2022-12-25T07:11:24.573Z,94.23
2022-12-25T07:13:51.561Z,83.40
2022-12-25T07:16:19.113Z,82.63
2022-12-25T07:18:46.527Z,104.33
2022-12-25T07:21:18.719Z,101.57
2022-12-25T07:23:47.953Z,98.30
2022-12-25T07:26:15.677Z,88.20
2022-12-25T07:28:43.519Z,103.60
2022-12-25T07:31:13.366Z,119.07
2022-12-25T07:33:40.626Z,102.90
2022-12-25T07:36:08.457Z,90.70
2022-12-25T07:38:41.352Z,87.43
2022-12-25T07:41:12.965Z,85.40
2022-12-25T07:43:40.919Z,75.77
2022-12-25T07:46:08.456Z,87.00
2022-12-25T07:48:36.129Z,94.40
2022-12-25T07:51:06.298Z,96.15
2022-12-25T07:53:33.596Z,98.45
2022-12-25T07:56:20.722Z,97.70
2022-12-25T07:58:49.124Z,106.35
2022-12-25T08:01:20.296Z,117.00
2022-12-25T08:03:53.215Z,117.40
2022-12-25T08:06:21.808Z,115.80
2022-12-25T08:08:49.194Z,112.72
2022-12-25T08:11:16.220Z,113.03
2022-12-25T08:13:43.122Z,107.75
2022-12-25T08:16:11.183Z,85.13
2022-12-25T08:18:39.546Z,79.88
2022-12-25T08:21:10.117Z,95.43
2022-12-25T08:23:39.328Z,68.35
2022-12-25T08:26:08.576Z,89.82
2022-12-25T08:28:36.092Z,99.40
2022-12-25T08:31:07.455Z,74.28
2022-12-25T08:33:34.977Z,80.90
2022-12-25T08:36:03.792Z,69.88
2022-12-25T08:38:30.965Z,68.90
2022-12-25T08:40:58.473Z,66.43
2022-12-25T08:43:25.872Z,66.20
2022-12-25T08:48:19.833Z,57.15
2022-12-25T08:50:48.304Z,62.60
2022-12-25T08:53:15.659Z,57.65
2022-12-25T08:55:43.073Z,62.20
2022-12-25T08:58:10.752Z,49.67
2022-12-25T09:00:38.046Z,53.30
2022-12-25T09:03:05.402Z,52.65
2022-12-25T09:05:35.812Z,54.95
2022-12-25T09:08:02.624Z,61.40
2022-12-25T09:10:30.344Z,58.50
2022-12-25T09:12:57.537Z,73.85
2022-12-25T09:15:24.685Z,76.72
2022-12-25T09:17:51.578Z,67.95
2022-12-25T09:20:19.099Z,62.20
2022-12-25T09:22:45.991Z,64.70
2022-12-25T09:25:13.531Z,78.07
2022-12-25T09:27:40.655Z,76.00
2022-12-25T09:30:08.353Z,75.30
2022-12-25T09:32:35.283Z,79.93
2022-12-25T09:35:03.226Z,92.20
2022-12-25T09:37:30.046Z,138.43
2022-12-25T09:39:57.404Z,199.98
2022-12-25T09:42:34.841Z,209.70
2022-12-25T09:45:12.163Z,238.10
2022-12-25T09:47:42.409Z,235.48
2022-12-25T09:50:23.967Z,220.77
2022-12-25T09:53:04.955Z,224.57
2022-12-25T09:55:37.704Z,202.52
2022-12-25T09:58:13.082Z,212.52
2022-12-25T10:00:46.539Z,196.63
2022-12-25T10:03:50.605Z,172.60
2022-12-25T10:06:35.251Z,203.02
2022-12-25T10:09:31.252Z,186.05
2022-12-25T10:12:27.543Z,182.55
2022-12-25T10:14:54.597Z,164.30
2022-12-25T10:17:21.857Z,154.30
2022-12-25T10:20:08.492Z,156.32
2022-12-25T10:22:41.380Z,143.88
2022-12-25T10:25:20.483Z,146.73
2022-12-25T10:27:52.957Z,157.23
2022-12-25T10:30:23.441Z,137.00
2022-12-25T10:32:51.677Z,144.38
2022-12-25T10:35:21.754Z,145.00
2022-12-25T10:38:14.233Z,156.93
2022-12-25T10:41:23.416Z,181.77
2022-12-25T10:43:53.853Z,208.85
2022-12-25T10:46:22.549Z,171.18
2022-12-25T10:48:51.128Z,171.15
2022-12-25T10:51:37.713Z,188.05
2022-12-25T10:54:24.809Z,159.80
2022-12-25T10:57:00.186Z,152.07
2022-12-25T10:59:29.871Z,266.13
2022-12-25T11:02:04.323Z,214.27
2022-12-25T11:04:36.071Z,157.85
2022-12-25T11:07:19.781Z,128.35
2022-12-25T11:10:02.632Z,141.20
2022-12-25T11:12:36.424Z,121.63
2022-12-25T11:15:31.858Z,128.60
2022-12-25T11:17:58.732Z,131.85
2022-12-25T11:20:26.328Z,131.18
2022-12-25T11:22:53.346Z,105.07
2022-12-25T11:25:26.216Z,127.10
2022-12-25T11:28:02.008Z,105.05
2022-12-25T11:30:31.429Z,114.22
2022-12-25T11:33:06.911Z,126.47
2022-12-25T11:35:54.758Z,97.72
2022-12-25T11:38:21.995Z,86.60
2022-12-25T11:40:55.264Z,91.72
2022-12-25T11:43:24.123Z,114.47
2022-12-25T11:46:06.160Z,111.53
2022-12-25T11:48:45.872Z,127.20
2022-12-25T11:51:15.205Z,102.97
2022-12-25T11:53:51.816Z,118.25
2022-12-25T11:56:23.378Z,108.20
2022-12-25T11:58:53.227Z,112.35
2022-12-25T12:01:58.978Z,94.45
2022-12-25T12:04:38.667Z,97.80
2022-12-25T12:07:27.016Z,87.32
2022-12-25T12:10:19.143Z,89.93
2022-12-25T12:13:01.191Z,109.25
2022-12-25T12:15:35.871Z,105.88
2022-12-25T12:18:32.557Z,94.00
2022-12-25T12:21:06.831Z,99.78
2022-12-25T12:23:55.392Z,82.60
2022-12-25T12:26:26.101Z,104.32
2022-12-25T12:28:59.160Z,88.05
2022-12-25T12:31:39.197Z,87.07
2022-12-25T12:34:14.528Z,110.40
2022-12-25T12:36:41.473Z,96.85
2022-12-25T12:39:24.490Z,97.93
2022-12-25T12:41:51.489Z,84.15
2022-12-25T12:44:20.443Z,89.75
2022-12-25T12:46:56.035Z,83.45
2022-12-25T12:49:25.091Z,89.53
2022-12-25T12:52:21.393Z,73.55
2022-12-25T12:54:59.634Z,70.25
2022-12-25T12:57:29.959Z,87.65
2022-12-25T12:59:59.905Z,64.53
2022-12-25T13:02:30.367Z,70.10
2022-12-25T13:05:07.137Z,55.42
2022-12-25T13:08:01.582Z,62.00
2022-12-25T13:10:33.171Z,63.95
2022-12-25T13:13:03.779Z,69.57
2022-12-25T13:15:34.387Z,61.45
2022-12-25T13:18:08.139Z,69.38
2022-12-25T13:21:16.880Z,63.45
2022-12-25T13:23:43.864Z,57.55
2022-12-25T13:26:18.011Z,55.08
2022-12-25T13:28:47.184Z,67.65
2022-12-25T13:31:14.102Z,66.20
2022-12-25T13:33:45.571Z,60.20
2022-12-25T13:36:14.101Z,54.78
2022-12-25T13:38:49.420Z,52.53
2022-12-25T13:41:40.022Z,70.32
2022-12-25T13:44:32.201Z,51.08
2022-12-25T13:47:15.808Z,45.95
2022-12-25T13:49:43.091Z,52.35
2022-12-25T13:52:20.399Z,54.67
2022-12-25T13:55:16.851Z,50.50
2022-12-25T13:57:59.276Z,42.15
2022-12-25T14:00:36.710Z,54.40
2022-12-25T14:03:05.626Z,48.97
2022-12-25T14:05:42.042Z,53.13
2022-12-25T14:08:26.906Z,51.20
2022-12-25T14:10:56.071Z,57.65
2022-12-25T14:13:27.779Z,42.95
2022-12-25T14:15:56.835Z,47.55
2022-12-25T14:18:25.098Z,50.35
2022-12-25T14:20:57.817Z,40.67
2022-12-25T14:23:25.124Z,49.03
2022-12-25T14:25:52.273Z,44.00
2022-12-25T14:28:34.285Z,46.08
2022-12-25T14:31:02.744Z,52.45
2022-12-25T14:33:37.154Z,56.33
2022-12-25T14:36:04.965Z,65.60
2022-12-25T14:38:35.100Z,68.78
2022-12-25T14:41:22.603Z,63.33
2022-12-25T14:43:56.890Z,54.92
2022-12-25T14:46:26.444Z,45.63
2022-12-25T14:49:21.303Z,53.42
2022-12-25T14:51:48.489Z,65.13
2022-12-25T14:54:23.668Z,57.13
2022-12-25T14:56:52.940Z,62.40
2022-12-25T14:59:24.849Z,60.25
2022-12-25T15:01:56.178Z,57.90
2022-12-25T15:04:25.130Z,56.58
2022-12-25T15:06:59.964Z,59.08
2022-12-25T15:09:30.324Z,52.25
2022-12-25T15:11:57.307Z,51.83
2022-12-25T15:14:25.986Z,57.88
2022-12-25T15:16:55.839Z,61.10
2022-12-25T15:19:29.391Z,54.20
2022-12-25T15:22:02.367Z,57.03
2022-12-25T15:24:29.204Z,62.38
2022-12-25T15:26:56.753Z,58.50
2022-12-25T15:29:59.744Z,80.10
2022-12-25T15:34:46.416Z,112.20
2022-12-25T15:37:14.428Z,116.78
2022-12-25T15:39:41.586Z,114.93
2022-12-25T15:42:17.005Z,110.65
2022-12-25T15:44:45.596Z,113.57
2022-12-25T15:47:14.144Z,107.60
2022-12-25T15:49:42.493Z,111.47
2022-12-25T15:52:13.813Z,94.75
2022-12-25T15:54:41.427Z,134.82
2022-12-25T15:57:18.170Z,384.02
2022-12-25T16:02:18.731Z,79.00
2022-12-25T16:04:46.192Z,128.65
2022-12-25T16:07:18.769Z,204.18
2022-12-25T16:09:46.440Z,250.10
2022-12-25T16:12:13.540Z,269.83
2022-12-25T16:14:41.555Z,259.00
2022-12-25T16:17:14.174Z,178.65
2022-12-25T16:19:45.445Z,197.70
2022-12-25T16:22:19.350Z,125.75
2022-12-25T16:24:47.449Z,132.63
2022-12-25T16:27:14.734Z,170.57
2022-12-25T16:29:42.914Z,194.90
2022-12-25T16:32:14.974Z,140.70
2022-12-25T16:34:43.317Z,104.18
2022-12-25T16:37:10.241Z,150.25
2022-12-25T16:39:37.277Z,194.98
2022-12-25T16:42:04.243Z,110.63
2022-12-25T16:44:31.128Z,90.50
2022-12-25T16:46:58.295Z,72.38
2022-12-25T16:49:25.189Z,65.82
2022-12-25T16:51:53.126Z,44.00
2022-12-25T16:54:20.244Z,40.38
2022-12-25T16:56:47.104Z,38.47
2022-12-25T16:59:14.421Z,31.92
2022-12-25T17:01:43.485Z,32.85
2022-12-25T17:04:12.007Z,39.63
2022-12-25T17:06:39.547Z,44.92
2022-12-25T17:09:07.675Z,46.33
2022-12-25T17:11:34.597Z,35.40
2022-12-25T17:14:04.242Z,45.83
2022-12-25T17:16:34.037Z,38.63
2022-12-25T17:19:04.273Z,38.35
2022-12-25T17:21:35.130Z,29.27
2022-12-25T17:24:03.695Z,39.80
2022-12-25T17:26:32.593Z,33.95
2022-12-25T17:28:59.859Z,52.03
2022-12-25T17:31:26.944Z,60.45
2022-12-25T17:33:54.226Z,46.67
2022-12-25T17:36:22.277Z,59.72
2022-12-25T17:38:49.788Z,44.70
2022-12-25T17:41:18.714Z,41.85
2022-12-25T17:43:47.062Z,29.83
2022-12-25T17:46:22.525Z,30.25
2022-12-25T17:48:50.382Z,36.75
2022-12-25T17:51:21.471Z,43.55
2022-12-25T17:53:53.360Z,50.75
2022-12-25T17:56:21.473Z,39.15
2022-12-25T17:58:53.774Z,40.08
2022-12-25T18:01:22.873Z,39.72
2022-12-25T18:03:50.448Z,47.33
2022-12-25T18:06:20.561Z,47.83
2022-12-25T18:08:48.216Z,54.97
2022-12-25T18:11:18.049Z,72.07
2022-12-25T18:13:48.416Z,81.97
2022-12-25T18:16:16.224Z,68.15
2022-12-25T18:18:51.121Z,65.38
2022-12-25T18:21:19.935Z,58.38
2022-12-25T18:23:47.832Z,72.15
2022-12-25T18:26:15.033Z,63.17
2022-12-25T18:28:42.867Z,76.97
2022-12-25T18:31:11.444Z,49.55
2022-12-25T18:33:38.577Z,64.30
2022-12-25T18:36:06.322Z,47.35
2022-12-25T18:38:33.850Z,41.47
2022-12-25T18:41:04.067Z,34.55
2022-12-25T18:43:51.305Z,43.10
2022-12-25T18:46:22.414Z,50.92
2022-12-25T18:48:50.405Z,69.93
2022-12-25T18:51:17.321Z,60.65
2022-12-25T18:53:45.681Z,61.70
2022-12-25T18:56:16.017Z,68.50
2022-12-25T18:58:43.960Z,74.13
2022-12-25T19:01:16.588Z,61.20
2022-12-25T19:03:44.650Z,52.72
2022-12-25T19:06:38.002Z,59.13
2022-12-25T19:09:11.534Z,61.53
2022-12-25T19:11:46.026Z,62.00
2022-12-25T19:14:13.961Z,75.35
2022-12-25T19:16:42.705Z,75.05
2022-12-25T19:19:09.815Z,61.35
2022-12-25T19:21:37.328Z,63.65
2022-12-25T19:24:06.723Z,224.82
2022-12-25T19:26:33.973Z,259.92
2022-12-25T19:29:01.043Z,245.82
2022-12-25T19:33:54.689Z,214.88
2022-12-25T19:36:21.874Z,147.52
2022-12-25T19:38:48.706Z,76.43
2022-12-25T19:41:18.622Z,157.45
2022-12-25T19:43:50.068Z,125.30
2022-12-25T19:46:21.161Z,190.30
2022-12-25T19:48:48.928Z,280.80
2022-12-25T19:51:18.966Z,249.70
2022-12-25T19:53:46.577Z,228.07
2022-12-25T19:56:14.421Z,260.20
2022-12-25T19:58:41.432Z,126.85
2022-12-25T20:01:12.970Z,185.57
2022-12-25T20:03:46.224Z,187.73
2022-12-25T20:06:22.116Z,75.22
2022-12-25T20:08:52.819Z,121.35
2022-12-25T20:11:21.261Z,107.22
2022-12-25T20:13:48.645Z,263.35
2022-12-25T20:16:15.871Z,325.63
2022-12-25T20:18:42.786Z,201.18
2022-12-25T20:21:19.336Z,102.30
2022-12-25T20:23:48.708Z,82.25
2022-12-25T20:26:17.634Z,86.47
2022-12-25T20:28:46.135Z,54.25
2022-12-25T20:31:18.442Z,60.20
2022-12-25T20:33:45.394Z,52.05
2022-12-25T20:36:13.002Z,64.22
2022-12-25T20:38:40.751Z,72.53
2022-12-25T20:41:30.112Z,67.97
2022-12-25T20:43:57.753Z,73.40
2022-12-25T20:46:26.084Z,93.78
2022-12-25T20:48:53.828Z,86.93
2022-12-25T20:51:23.243Z,95.38
2022-12-25T20:53:50.605Z,128.95
2022-12-25T20:56:19.191Z,107.13
2022-12-25T20:58:46.162Z,104.22
2022-12-25T21:01:16.296Z,113.53
2022-12-25T21:03:45.704Z,107.00
2022-12-25T21:06:13.384Z,98.68
2022-12-25T21:08:41.219Z,112.82
2022-12-25T21:11:09.276Z,178.30
2022-12-25T21:13:43.262Z,152.13
2022-12-25T21:16:15.997Z,183.95
2022-12-25T21:18:43.087Z,190.82
2022-12-25T21:21:10.729Z,193.57
2022-12-25T21:23:40.104Z,194.65
2022-12-25T21:26:18.489Z,137.45
2022-12-25T21:28:50.024Z,98.07
2022-12-25T21:31:18.020Z,137.32
2022-12-25T21:33:57.778Z,130.63
2022-12-25T21:36:27.509Z,125.43
2022-12-25T21:38:55.477Z,137.98
2022-12-25T21:41:24.449Z,106.63
2022-12-25T21:43:51.420Z,131.45
2022-12-25T21:46:19.080Z,140.40
2022-12-25T21:48:46.430Z,156.50
2022-12-25T21:51:31.915Z,159.37
2022-12-25T21:53:59.565Z,157.70
2022-12-25T21:56:29.266Z,141.60
2022-12-25T21:58:56.158Z,145.52
2022-12-25T22:01:23.158Z,137.03
2022-12-25T22:03:50.196Z,166.25
2022-12-25T22:06:35.795Z,163.53
2022-12-25T22:09:05.988Z,143.63
2022-12-25T22:11:52.052Z,157.77
2022-12-25T22:14:51.764Z,143.80
2022-12-25T22:17:48.611Z,132.07
2022-12-25T22:20:24.184Z,126.20
2022-12-25T22:22:54.027Z,124.05
2022-12-25T22:25:21.749Z,120.65
2022-12-25T22:27:49.589Z,110.83
2022-12-25T22:30:19.891Z,107.87
2022-12-25T22:32:47.433Z,98.70
2022-12-25T22:35:16.785Z,96.43
2022-12-25T22:37:44.523Z,92.47
2022-12-25T22:40:14.976Z,95.87
2022-12-25T22:42:42.519Z,90.00
2022-12-25T22:45:10.592Z,105.10
2022-12-25T22:47:37.957Z,90.93
2022-12-25T22:50:05.816Z,87.95
2022-12-25T22:52:33.539Z,115.00
2022-12-25T22:55:00.518Z,117.50
2022-12-25T22:57:27.499Z,127.77
2022-12-25T22:59:54.461Z,149.20
2022-12-25T23:02:21.700Z,122.63
2022-12-25T23:04:48.794Z,128.40
2022-12-25T23:07:15.788Z,142.73
2022-12-25T23:09:44.163Z,145.80
2022-12-25T23:12:31.954Z,151.50
2022-12-25T23:14:58.882Z,151.10
2022-12-25T23:17:44.587Z,139.73
2022-12-25T23:20:33.307Z,143.73
2022-12-25T23:23:19.206Z,133.90
2022-12-25T23:26:04.931Z,114.73
2022-12-25T23:28:54.467Z,122.13
2022-12-25T23:31:29.820Z,111.57
2022-12-25T23:33:57.477Z,129.00
2022-12-25T23:36:24.462Z,123.77
2022-12-25T23:38:51.362Z,120.30
2022-12-25T23:41:18.257Z,141.47
2022-12-25T23:43:45.251Z,131.37
2022-12-25T23:46:12.232Z,135.37
2022-12-25T23:48:42.485Z,131.67
2022-12-25T23:51:09.433Z,145.53
2022-12-25T23:53:38.161Z,137.43
2022-12-25T23:56:05.760Z,141.20
2022-12-25T23:58:33.612Z,138.17
